Time;durP1;ratioP1;P1;durP2;ratioP2;P2;SDS_P1;SDS_P2;PMS_P1;PMS_P2;Temp;Humidity;BMP_temperature;BMP_pressure;BME280_temperature;BME280_humidity;BME280_pressure;Samples;Min_cycle;Max_cycle;Signal;HPM_P1;HPM_P2
2022/04/07 00:01:23;;;;;;;13.07;10.07;;;8.60;99.90;;;;;;5096221;28;20491;-78
2022/04/07 00:03:49;;;;;;;18.15;9.93;;;8.60;99.90;;;;;;5097537;28;20099;-78
2022/04/07 00:06:15;;;;;;;12.35;8.73;;;8.60;99.90;;;;;;5097000;28;20019;-78
2022/04/07 00:08:41;;;;;;;14.77;10.15;;;8.60;99.90;;;;;;5097412;28;20017;-77
2022/04/07 00:11:07;;;;;;;10.93;8.70;;;8.60;99.90;;;;;;5097228;28;20024;-77
2022/04/07 00:13:34;;;;;;;14.02;9.98;;;8.60;99.90;;;;;;5097340;28;20046;-78
2022/04/07 00:16:00;;;;;;;11.25;9.13;;;8.50;99.90;;;;;;5097153;28;20031;-77
2022/04/07 00:18:27;;;;;;;15.02;9.63;;;8.50;99.90;;;;;;5096032;28;20021;-77
2022/04/07 00:20:53;;;;;;;12.77;10.05;;;8.40;99.90;;;;;;5095680;28;20028;-77
2022/04/07 00:23:20;;;;;;;11.48;9.95;;;8.40;99.90;;;;;;5096163;28;20043;-77
2022/04/07 00:25:46;;;;;;;13.13;10.82;;;8.50;99.90;;;;;;5095754;28;20934;-77
2022/04/07 00:28:12;;;;;;;11.50;9.50;;;8.50;99.90;;;;;;5097064;28;20048;-78
2022/04/07 00:30:39;;;;;;;13.90;9.40;;;8.40;99.90;;;;;;5095590;28;20024;-80
2022/04/07 00:33:07;;;;;;;11.32;9.40;;;8.50;99.90;;;;;;5097126;28;20472;-80
2022/04/07 00:35:33;;;;;;;13.82;10.27;;;8.60;99.90;;;;;;5095372;28;20395;-80
2022/04/07 00:38:00;;;;;;;14.32;10.45;;;8.60;99.90;;;;;;5096618;28;20029;-77
2022/04/07 00:40:26;;;;;;;12.00;9.63;;;8.70;99.90;;;;;;5095586;28;20020;-78
2022/04/07 00:42:53;;;;;;;14.05;9.95;;;8.70;99.90;;;;;;5096778;28;20016;-77
2022/04/07 00:45:22;;;;;;;10.98;8.57;;;8.70;99.90;;;;;;5096881;28;20500;-77
2022/04/07 00:47:49;;;;;;;11.90;9.02;;;8.70;99.90;;;;;;5095717;28;20020;-77
2022/04/07 00:50:16;;;;;;;9.90;8.80;;;8.80;99.90;;;;;;5096753;28;20039;-77
2022/04/07 00:52:45;;;;;;;11.60;9.07;;;8.80;99.90;;;;;;5095846;28;20545;-77
2022/04/07 00:55:12;;;;;;;10.70;8.90;;;8.80;99.90;;;;;;5096994;28;20032;-77
2022/04/07 00:57:39;;;;;;;11.95;9.07;;;8.80;99.90;;;;;;5095491;28;20050;-77
2022/04/07 01:00:07;;;;;;;12.23;8.70;;;8.80;99.90;;;;;;5096095;28;20024;-78
2022/04/07 01:02:33;;;;;;;11.23;8.63;;;8.80;99.90;;;;;;5096862;28;20023;-77
2022/04/07 01:04:59;;;;;;;14.18;9.68;;;8.80;99.90;;;;;;5097176;28;20028;-78
2022/04/07 01:07:28;;;;;;;21.33;9.27;;;8.80;99.90;;;;;;5096997;28;20016;-77
2022/04/07 01:09:54;;;;;;;11.68;9.52;;;8.80;99.90;;;;;;5100024;28;20024;-78
2022/04/07 01:12:20;;;;;;;10.43;9.07;;;8.80;99.90;;;;;;5095351;28;20028;-77
2022/04/07 01:15:00;;;;;;;9.13;8.00;;;8.90;99.90;;;;;;5099303;28;20381;-77
2022/04/07 01:17:27;;;;;;;15.45;8.38;;;8.80;99.90;;;;;;5099175;28;20124;-77
2022/04/07 01:19:53;;;;;;;10.98;8.60;;;8.80;99.90;;;;;;5100295;28;20024;-77
2022/04/07 01:22:20;;;;;;;13.40;9.18;;;8.80;99.90;;;;;;5099033;28;20028;-76
2022/04/07 01:24:47;;;;;;;13.88;9.27;;;8.70;99.90;;;;;;5100247;28;20028;-76
2022/04/07 01:27:14;;;;;;;11.05;9.30;;;8.70;99.90;;;;;;5100284;28;20016;-77
2022/04/07 01:29:40;;;;;;;9.93;8.80;;;8.70;99.90;;;;;;5088509;28;20081;-76
2022/04/07 01:32:38;;;;;;;10.73;8.48;;;8.70;99.90;;;;;;5097092;28;20016;-76
2022/04/07 01:35:05;;;;;;;13.73;9.05;;;8.70;99.90;;;;;;5099033;28;20412;-77
2022/04/07 01:37:31;;;;;;;13.73;9.48;;;8.70;99.90;;;;;;5100120;28;20065;-77
2022/04/07 01:39:59;;;;;;;12.90;9.57;;;8.80;99.90;;;;;;5099975;28;20478;-77
2022/04/07 01:42:26;;;;;;;12.48;9.10;;;8.80;99.90;;;;;;5098465;28;20488;-77
2022/04/07 01:44:54;;;;;;;11.90;9.45;;;8.70;99.90;;;;;;5084515;28;20104;-77
2022/04/07 01:47:21;;;;;;;12.18;9.35;;;8.70;99.90;;;;;;5098598;28;20020;-77
2022/04/07 01:49:56;;;;;;;12.40;10.00;;;8.70;99.90;;;;;;5098358;28;20016;-78
2022/04/07 01:52:22;;;;;;;10.38;8.45;;;8.70;99.90;;;;;;5098486;28;20024;-78
2022/04/07 01:54:50;;;;;;;11.60;9.90;;;8.70;99.90;;;;;;5099541;28;20484;-77
2022/04/07 01:57:16;;;;;;;9.90;8.43;;;8.70;99.90;;;;;;5098302;28;20016;-78
2022/04/07 01:59:42;;;;;;;13.93;8.65;;;8.80;99.90;;;;;;5098397;28;20085;-79
2022/04/07 02:02:08;;;;;;;9.07;8.20;;;8.80;99.90;;;;;;5098139;28;20031;-78
2022/04/07 02:04:33;;;;;;;11.48;8.10;;;8.80;99.90;;;;;;5097950;28;20116;-80
2022/04/07 02:06:59;;;;;;;14.07;8.77;;;8.80;99.90;;;;;;5097679;28;20103;-79
2022/04/07 02:09:25;;;;;;;11.70;8.25;;;8.80;99.90;;;;;;5097756;28;20121;-78
2022/04/07 02:11:51;;;;;;;12.55;8.93;;;8.80;99.90;;;;;;5097277;28;20029;-77
2022/04/07 02:14:17;;;;;;;9.73;7.40;;;8.80;99.90;;;;;;5098952;28;20028;-77
2022/04/07 02:16:43;;;;;;;8.75;7.85;;;8.80;99.90;;;;;;5098267;28;20044;-77
2022/04/07 02:19:09;;;;;;;15.25;8.68;;;8.80;99.90;;;;;;5097282;28;20024;-78
2022/04/07 02:21:35;;;;;;;9.48;8.48;;;8.90;99.90;;;;;;5098760;28;20020;-79
2022/04/07 02:24:01;;;;;;;13.70;7.60;;;8.90;99.90;;;;;;5097774;28;20020;-79
2022/04/07 02:26:26;;;;;;;9.00;7.50;;;8.90;99.90;;;;;;5099284;28;20056;-77
2022/04/07 02:28:52;;;;;;;9.50;7.47;;;9.00;99.90;;;;;;5097002;28;20069;-78
2022/04/07 02:31:18;;;;;;;9.63;7.25;;;9.00;99.90;;;;;;5096927;28;20027;-77
2022/04/07 02:33:45;;;;;;;10.95;7.10;;;9.00;99.90;;;;;;5097527;28;20047;-77
2022/04/07 02:36:13;;;;;;;7.43;6.70;;;9.00;99.90;;;;;;5096626;28;20059;-78
2022/04/07 02:38:39;;;;;;;7.60;6.80;;;9.00;99.90;;;;;;5098129;28;20023;-76
2022/04/07 02:41:05;;;;;;;9.32;6.07;;;9.10;99.90;;;;;;5098789;28;20103;-77
2022/04/07 02:43:31;;;;;;;8.65;7.15;;;9.10;99.90;;;;;;5098585;28;20103;-77
2022/04/07 02:45:57;;;;;;;7.20;6.30;;;9.10;99.90;;;;;;5097222;28;20044;-77
2022/04/07 02:48:23;;;;;;;9.57;7.28;;;9.10;99.90;;;;;;5098696;28;20091;-78
2022/04/07 02:50:49;;;;;;;7.18;6.00;;;9.20;99.90;;;;;;5098403;28;20048;-78
2022/04/07 02:53:14;;;;;;;8.35;6.13;;;9.20;99.90;;;;;;5097168;28;20035;-78
2022/04/07 02:55:41;;;;;;;5.88;5.10;;;9.20;99.90;;;;;;5098522;28;20024;-77
2022/04/07 02:58:07;;;;;;;9.02;5.72;;;9.30;99.90;;;;;;5097885;28;20028;-77
2022/04/07 03:00:33;;;;;;;6.70;5.13;;;9.20;99.90;;;;;;5097798;28;20020;-78
2022/04/07 03:02:59;;;;;;;7.97;5.47;;;9.30;99.90;;;;;;5097656;28;20023;-77
2022/04/07 03:05:25;;;;;;;9.63;6.32;;;9.30;99.90;;;;;;5097610;28;20380;-78
2022/04/07 03:07:50;;;;;;;10.50;5.90;;;9.30;99.90;;;;;;5097698;28;20019;-78
2022/04/07 03:10:16;;;;;;;7.88;5.82;;;9.40;99.90;;;;;;5097763;28;20016;-78
2022/04/07 03:12:42;;;;;;;6.90;5.50;;;9.40;99.90;;;;;;5096226;28;20496;-78
2022/04/07 03:15:09;;;;;;;8.30;5.13;;;9.40;99.90;;;;;;5096411;28;20028;-78
2022/04/07 03:17:35;;;;;;;7.05;5.10;;;9.40;99.90;;;;;;5089375;28;20027;-78
2022/04/07 03:20:02;;;;;;;7.00;5.07;;;9.30;99.90;;;;;;5081966;28;20016;-79
2022/04/07 03:22:28;;;;;;;8.50;7.07;;;9.30;99.90;;;;;;5087757;28;20028;-78
2022/04/07 03:24:54;;;;;;;5.65;5.05;;;9.30;99.90;;;;;;5077446;28;20025;-78
2022/04/07 03:27:19;;;;;;;7.10;5.90;;;9.40;99.90;;;;;;5081414;28;20032;-80
2022/04/07 03:29:45;;;;;;;6.43;5.82;;;9.40;99.90;;;;;;5086685;28;20019;-78
2022/04/07 03:32:11;;;;;;;6.43;5.40;;;9.40;99.90;;;;;;5095881;28;20020;-78
2022/04/07 03:34:37;;;;;;;8.02;5.82;;;9.40;99.90;;;;;;5096890;28;20012;-78
2022/04/07 03:37:04;;;;;;;5.65;5.13;;;9.40;99.90;;;;;;5077669;28;20025;-77
2022/04/07 03:39:31;;;;;;;6.45;5.35;;;9.40;99.90;;;;;;5078006;28;20035;-76
2022/04/07 03:41:57;;;;;;;7.93;5.15;;;9.40;99.90;;;;;;5079960;28;20033;-78
2022/04/07 03:44:23;;;;;;;5.47;4.97;;;9.40;99.90;;;;;;5078881;28;20519;-78
2022/04/07 03:46:49;;;;;;;9.18;5.68;;;9.40;99.90;;;;;;5079638;28;20070;-77
2022/04/07 03:49:15;;;;;;;9.60;5.18;;;9.50;99.90;;;;;;5077434;28;20020;-76
2022/04/07 03:51:41;;;;;;;5.45;4.60;;;9.50;99.90;;;;;;5078837;28;20020;-77
2022/04/07 03:54:07;;;;;;;5.45;4.95;;;9.50;99.90;;;;;;5078499;28;20035;-77
2022/04/07 03:56:33;;;;;;;5.18;4.43;;;9.50;99.90;;;;;;5079432;28;20016;-78
2022/04/07 03:58:59;;;;;;;4.85;4.45;;;9.50;99.90;;;;;;5078418;28;20033;-76
2022/04/07 04:01:28;;;;;;;4.60;4.10;;;9.40;99.90;;;;;;5078032;28;20013;-78
2022/04/07 04:03:54;;;;;;;5.53;4.35;;;9.40;99.90;;;;;;5076767;28;20020;-79
2022/04/07 04:06:20;;;;;;;6.40;4.43;;;9.40;99.90;;;;;;5082017;28;20024;-78
2022/04/07 04:08:46;;;;;;;4.40;4.00;;;9.50;99.90;;;;;;5097506;28;20024;-79
2022/04/07 04:11:13;;;;;;;6.00;4.03;;;9.50;99.90;;;;;;5097284;28;20026;-79
2022/04/07 04:13:39;;;;;;;6.07;5.00;;;9.50;99.90;;;;;;5095786;28;20392;-78
2022/04/07 04:16:05;;;;;;;7.25;4.40;;;9.50;99.90;;;;;;5097177;28;20021;-80
2022/04/07 04:18:31;;;;;;;5.45;4.22;;;9.50;99.90;;;;;;5097135;28;20036;-79
2022/04/07 04:20:57;;;;;;;4.80;4.18;;;9.50;99.90;;;;;;5096726;28;20024;-80
2022/04/07 04:23:23;;;;;;;6.32;4.15;;;9.50;99.90;;;;;;5095888;28;20534;-79
2022/04/07 04:25:49;;;;;;;5.93;4.03;;;9.50;99.90;;;;;;5097045;28;20016;-80
2022/04/07 04:28:15;;;;;;;4.65;4.20;;;9.50;99.90;;;;;;5097012;28;20427;-80
2022/04/07 04:30:41;;;;;;;5.82;4.40;;;9.50;99.90;;;;;;5095708;28;20020;-80
2022/04/07 04:33:06;;;;;;;4.70;4.07;;;9.50;99.90;;;;;;5097139;28;20020;-80
2022/04/07 04:35:32;;;;;;;4.72;3.65;;;9.50;99.90;;;;;;5096602;28;20507;-79
2022/04/07 04:37:58;;;;;;;4.80;4.28;;;9.50;99.90;;;;;;5097031;28;20031;-80
2022/04/07 04:40:24;;;;;;;4.63;3.88;;;9.60;99.90;;;;;;5097175;28;20027;-79
2022/04/07 04:42:50;;;;;;;8.55;4.30;;;9.50;99.90;;;;;;5098921;28;20168;-79
2022/04/07 04:45:16;;;;;;;6.05;4.70;;;9.50;99.90;;;;;;5101025;28;20075;-79
2022/04/07 04:47:42;;;;;;;4.70;4.15;;;9.50;99.90;;;;;;5100998;28;20031;-79
2022/04/07 04:50:08;;;;;;;6.93;4.30;;;9.50;99.90;;;;;;5100812;28;20095;-80
2022/04/07 04:52:34;;;;;;;6.22;5.32;;;9.50;99.90;;;;;;5100805;28;20054;-79
2022/04/07 04:55:00;;;;;;;6.55;4.85;;;9.40;99.90;;;;;;5100761;28;20028;-80
2022/04/07 04:57:27;;;;;;;4.22;3.83;;;9.30;99.90;;;;;;5099655;28;20028;-80
2022/04/07 04:59:53;;;;;;;6.18;4.60;;;9.30;99.90;;;;;;5099375;28;20030;-79
2022/04/07 05:02:19;;;;;;;8.05;4.95;;;9.30;99.90;;;;;;5099382;28;20032;-80
2022/04/07 05:04:45;;;;;;;6.32;4.68;;;9.20;99.90;;;;;;5100322;28;20074;-80
2022/04/07 05:07:11;;;;;;;6.05;4.20;;;9.20;99.90;;;;;;5100608;28;20024;-80
2022/04/07 05:09:38;;;;;;;5.68;3.85;;;9.20;99.90;;;;;;5100525;28;20020;-79
2022/04/07 05:12:05;;;;;;;4.13;3.72;;;9.20;99.90;;;;;;5100531;28;20792;-80
2022/04/07 05:14:31;;;;;;;4.50;3.85;;;9.20;99.90;;;;;;5100493;28;20032;-81
2022/04/07 05:16:57;;;;;;;6.13;4.28;;;9.20;99.90;;;;;;5099308;28;20035;-79
2022/04/07 05:19:22;;;;;;;8.80;4.13;;;9.10;99.90;;;;;;5100282;28;20036;-80
2022/04/07 05:21:50;;;;;;;6.13;4.15;;;9.10;99.90;;;;;;5097192;28;20111;-79
2022/04/07 05:24:19;;;;;;;5.65;3.80;;;9.00;99.90;;;;;;5099089;28;20023;-80
2022/04/07 05:26:46;;;;;;;4.47;3.92;;;9.00;99.90;;;;;;5100377;28;20020;-80
2022/04/07 05:29:12;;;;;;;4.72;4.10;;;9.00;99.90;;;;;;5094209;28;20031;-80
2022/04/07 05:31:38;;;;;;;4.75;4.28;;;9.00;99.90;;;;;;5092630;28;20030;-79
2022/04/07 05:34:04;;;;;;;15.07;4.28;;;9.00;99.90;;;;;;5100610;28;20039;-79
2022/04/07 05:36:31;;;;;;;4.57;4.00;;;9.10;99.90;;;;;;5099761;28;20080;-80
2022/04/07 05:38:57;;;;;;;5.82;4.22;;;9.10;99.90;;;;;;5100519;28;20027;-80
2022/04/07 05:41:23;;;;;;;7.78;4.25;;;9.00;99.90;;;;;;5098629;28;20511;-79
2022/04/07 05:43:49;;;;;;;7.00;4.15;;;9.00;99.90;;;;;;5098339;28;20024;-79
2022/04/07 05:46:15;;;;;;;6.22;4.05;;;9.00;99.90;;;;;;5098572;28;20402;-79
2022/04/07 05:48:41;;;;;;;4.80;4.20;;;9.00;99.90;;;;;;5098580;28;20028;-79
2022/04/07 05:51:07;;;;;;;4.05;3.53;;;9.00;99.90;;;;;;5099508;28;20020;-79
2022/04/07 05:53:32;;;;;;;7.95;3.58;;;9.10;99.90;;;;;;5097440;28;20031;-80
2022/04/07 05:55:59;;;;;;;5.88;3.67;;;9.20;99.90;;;;;;5098222;28;20566;-80
2022/04/07 05:58:25;;;;;;;3.50;3.20;;;9.20;99.90;;;;;;5098340;28;20032;-80
2022/04/07 06:00:51;;;;;;;3.97;3.55;;;9.30;99.90;;;;;;5099593;28;20032;-79
2022/04/07 06:03:17;;;;;;;8.25;4.03;;;9.40;99.90;;;;;;5100018;28;20423;-79
2022/04/07 06:05:43;;;;;;;5.05;3.53;;;9.50;99.90;;;;;;5099356;28;20069;-79
2022/04/07 06:08:09;;;;;;;9.02;4.07;;;9.50;99.90;;;;;;5098208;28;20137;-80
2022/04/07 06:10:36;;;;;;;6.00;4.28;;;9.60;99.90;;;;;;5098139;28;20357;-80
2022/04/07 06:13:02;;;;;;;8.05;4.30;;;9.70;99.90;;;;;;5099556;28;20118;-79
2022/04/07 06:15:29;;;;;;;3.30;3.00;;;9.70;99.90;;;;;;5097896;28;20021;-79
2022/04/07 06:17:56;;;;;;;4.45;3.83;;;9.70;99.90;;;;;;5089069;28;20036;-80
2022/04/07 06:20:21;;;;;;;9.82;3.83;;;9.80;99.90;;;;;;5097741;28;20027;-79
2022/04/07 06:22:48;;;;;;;5.47;3.33;;;9.90;99.90;;;;;;5097773;28;20025;-79
2022/04/07 06:25:14;;;;;;;3.42;3.08;;;9.90;99.90;;;;;;5099125;28;20425;-80
2022/04/07 06:27:42;;;;;;;5.70;3.28;;;10.00;99.90;;;;;;5099207;28;20484;-79
2022/04/07 06:30:10;;;;;;;3.10;2.80;;;10.10;99.90;;;;;;5097819;28;20031;-80
2022/04/07 06:32:36;;;;;;;4.07;3.30;;;10.20;99.90;;;;;;5097705;28;20097;-79
2022/04/07 06:35:03;;;;;;;4.88;2.90;;;10.20;99.90;;;;;;5097292;28;20043;-80
2022/04/07 06:37:29;;;;;;;3.20;2.90;;;10.30;99.90;;;;;;5099091;28;20027;-80
2022/04/07 06:40:02;;;;;;;7.78;3.72;;;10.40;99.90;;;;;;5097441;28;20035;-80
2022/04/07 06:42:28;;;;;;;4.13;3.17;;;10.50;99.90;;;;;;5098949;28;20093;-80
2022/04/07 06:44:55;;;;;;;3.70;3.25;;;10.50;99.90;;;;;;5097366;28;20455;-79
2022/04/07 06:47:22;;;;;;;3.13;2.88;;;10.60;99.90;;;;;;5097815;28;20085;-77
2022/04/07 06:49:52;;;;;;;5.82;2.78;;;10.70;99.90;;;;;;5098648;28;20016;-76
2022/04/07 06:52:19;;;;;;;3.05;2.67;;;10.80;99.90;;;;;;5099094;28;20039;-77
2022/04/07 06:54:45;;;;;;;3.92;3.30;;;10.90;99.90;;;;;;5097536;28;20020;-77
2022/04/07 06:57:11;;;;;;;3.75;3.35;;;11.00;99.90;;;;;;5098691;28;20032;-76
2022/04/07 06:59:37;;;;;;;3.83;2.72;;;11.00;99.90;;;;;;5097532;28;20070;-77
2022/04/07 07:02:03;;;;;;;6.90;3.50;;;11.00;99.90;;;;;;5098344;28;20032;-76
2022/04/07 07:04:32;;;;;;;3.40;2.95;;;11.10;99.90;;;;;;5097394;28;20017;-75
2022/04/07 07:06:58;;;;;;;3.95;2.95;;;11.10;99.90;;;;;;5098096;28;20024;-82
2022/04/07 07:09:25;;;;;;;3.15;2.78;;;11.10;99.90;;;;;;5091418;28;20031;-81
2022/04/07 07:11:51;;;;;;;6.85;3.20;;;11.20;99.90;;;;;;5087548;28;20039;-82
2022/04/07 07:14:17;;;;;;;3.20;2.90;;;11.40;99.90;;;;;;5086074;28;20055;-80
2022/04/07 07:16:43;;;;;;;3.38;2.80;;;11.50;99.90;;;;;;5096813;28;20474;-81
2022/04/07 07:19:10;;;;;;;2.65;2.42;;;11.50;99.90;;;;;;5097968;28;20115;-81
2022/04/07 07:21:36;;;;;;;6.30;2.20;;;11.60;99.90;;;;;;5096569;28;20032;-85
2022/04/07 07:24:03;;;;;;;3.95;2.72;;;11.70;99.90;;;;;;5096885;28;20403;-84
2022/04/07 07:26:29;;;;;;;6.65;2.70;;;11.80;99.90;;;;;;5097939;28;20669;-80
2022/04/07 07:28:54;;;;;;;3.50;2.75;;;11.90;99.90;;;;;;5096455;28;20016;-83
2022/04/07 07:31:20;;;;;;;6.22;2.50;;;12.00;99.90;;;;;;5099288;28;20095;-83
2022/04/07 07:33:49;;;;;;;3.35;2.70;;;12.10;99.90;;;;;;5092071;28;20027;-83
2022/04/07 07:36:14;;;;;;;3.22;2.50;;;12.10;99.90;;;;;;5097701;28;20020;-82
2022/04/07 07:38:40;;;;;;;3.05;2.53;;;12.20;99.90;;;;;;5097533;28;20027;-79
2022/04/07 07:41:06;;;;;;;6.43;2.53;;;12.20;99.90;;;;;;5096389;28;20028;-82
2022/04/07 07:43:32;;;;;;;3.70;2.30;;;12.30;99.90;;;;;;5096000;28;20023;-82
2022/04/07 07:45:58;;;;;;;3.78;3.38;;;12.40;99.90;;;;;;5097416;28;20051;-83
2022/04/07 07:48:30;;;;;;;3.95;2.85;;;12.50;99.90;;;;;;5097527;28;20031;-84
2022/04/07 07:50:56;;;;;;;4.57;2.40;;;12.60;99.90;;;;;;5097524;28;20400;-83
2022/04/07 07:53:22;;;;;;;6.28;2.63;;;12.60;99.90;;;;;;5086620;28;20020;-84
2022/04/07 07:55:49;;;;;;;3.40;2.60;;;12.70;99.90;;;;;;5097258;28;20031;-83
2022/04/07 07:58:15;;;;;;;3.40;2.60;;;12.90;99.90;;;;;;5096349;28;20024;-83
2022/04/07 08:00:41;;;;;;;5.25;3.03;;;13.00;99.90;;;;;;5097686;28;20476;-84
2022/04/07 08:03:07;;;;;;;3.72;2.10;;;13.10;99.90;;;;;;5097498;28;20032;-83
2022/04/07 08:05:33;;;;;;;5.57;2.67;;;13.20;99.90;;;;;;5097482;28;20019;-83
2022/04/07 08:07:59;;;;;;;3.28;2.45;;;13.30;99.90;;;;;;5097511;28;20051;-80
2022/04/07 08:10:27;;;;;;;6.57;2.50;;;13.40;99.90;;;;;;5097962;28;20020;-83
2022/04/07 08:12:53;;;;;;;3.55;2.70;;;13.40;99.90;;;;;;5097481;28;20408;-84
2022/04/07 08:15:19;;;;;;;3.03;2.10;;;13.50;99.90;;;;;;5098124;28;20028;-82
2022/04/07 08:17:45;;;;;;;4.10;2.20;;;13.60;99.90;;;;;;5095563;28;20510;-82
2022/04/07 08:20:12;;;;;;;5.68;2.20;;;13.70;99.90;;;;;;5095987;28;20119;-80
2022/04/07 08:22:38;;;;;;;5.13;2.15;;;13.90;99.90;;;;;;5096145;28;20024;-81
2022/04/07 08:25:05;;;;;;;9.05;2.42;;;14.00;99.90;;;;;;5097348;28;20024;-80
2022/04/07 08:27:30;;;;;;;6.20;2.22;;;14.10;99.90;;;;;;5094599;28;20028;-82
2022/04/07 08:29:56;;;;;;;4.95;2.40;;;14.30;99.90;;;;;;5096839;28;20065;-81
2022/04/07 08:32:22;;;;;;;5.63;2.28;;;14.50;99.90;;;;;;5095293;28;20024;-79
2022/04/07 08:34:48;;;;;;;6.13;2.15;;;14.50;99.90;;;;;;5095810;28;20111;-81
2022/04/07 08:37:14;;;;;;;5.78;2.67;;;14.50;99.90;;;;;;5097337;28;20032;-78
2022/04/07 08:39:40;;;;;;;2.47;2.20;;;14.40;99.90;;;;;;5097180;28;20059;-77
2022/04/07 08:42:06;;;;;;;3.13;2.00;;;14.50;99.90;;;;;;5096668;28;20484;-79
2022/04/07 08:44:33;;;;;;;4.43;2.15;;;14.50;99.90;;;;;;5095325;28;20173;-79
2022/04/07 08:46:59;;;;;;;2.95;2.20;;;14.50;99.90;;;;;;5096957;28;20048;-80
2022/04/07 08:49:30;;;;;;;5.72;2.45;;;14.70;99.90;;;;;;5096034;28;20028;-78
2022/04/07 08:51:57;;;;;;;3.60;1.90;;;14.80;99.90;;;;;;5095407;28;20056;-81
2022/04/07 08:54:23;;;;;;;3.00;2.20;;;14.90;99.90;;;;;;5095336;28;20599;-81
2022/04/07 08:56:49;;;;;;;2.17;1.80;;;14.90;99.90;;;;;;5095565;28;20054;-79
2022/04/07 08:59:16;;;;;;;4.45;2.33;;;14.90;99.90;;;;;;5094339;28;20039;-81
2022/04/07 09:01:42;;;;;;;4.03;2.55;;;14.90;99.90;;;;;;5094231;28;20024;-81
2022/04/07 09:04:11;;;;;;;4.10;2.05;;;15.10;99.90;;;;;;5094130;28;20076;-80
2022/04/07 09:06:39;;;;;;;4.50;2.42;;;15.10;99.90;;;;;;5095370;28;20032;-79
2022/04/07 09:09:14;;;;;;;4.18;2.03;;;15.20;99.90;;;;;;5096866;28;20108;-81
2022/04/07 09:11:40;;;;;;;4.57;2.50;;;15.10;99.90;;;;;;5097153;28;20060;-81
2022/04/07 09:14:10;;;;;;;5.25;2.47;;;14.90;99.90;;;;;;5096935;28;20028;-80
2022/04/07 09:16:38;;;;;;;3.90;2.43;;;14.80;99.90;;;;;;5098038;28;20032;-81
2022/04/07 09:19:04;;;;;;;6.35;3.90;;;14.80;99.90;;;;;;5096371;28;20028;-81
2022/04/07 09:21:34;;;;;;;5.22;2.10;;;14.80;99.90;;;;;;5096051;28;20028;-80
2022/04/07 09:24:05;;;;;;;2.55;2.15;;;14.80;99.90;;;;;;5097198;28;20039;-80
2022/04/07 09:26:34;;;;;;;3.47;1.98;;;14.90;99.90;;;;;;5095602;28;20070;-80
2022/04/07 09:29:09;;;;;;;2.72;2.33;;;15.00;99.90;;;;;;5097941;28;20032;-79
2022/04/07 09:31:40;;;;;;;2.72;2.10;;;15.00;99.90;;;;;;5099600;28;20016;-80
2022/04/07 09:34:06;;;;;;;5.05;1.80;;;15.10;99.90;;;;;;5101116;28;20024;-79
2022/04/07 09:36:33;;;;;;;3.30;2.00;;;15.20;99.90;;;;;;5098727;28;20058;-80
2022/04/07 09:39:01;;;;;;;3.72;2.15;;;15.30;99.90;;;;;;5100923;28;20035;-81
2022/04/07 09:41:31;;;;;;;2.58;2.30;;;15.30;99.90;;;;;;5099996;28;20031;-78
2022/04/07 09:43:59;;;;;;;5.45;2.20;;;15.30;99.90;;;;;;5101022;28;20055;-80
2022/04/07 09:46:34;;;;;;;5.82;2.00;;;15.40;99.90;;;;;;5100856;28;20028;-81
2022/04/07 09:49:07;;;;;;;3.53;1.98;;;15.50;99.90;;;;;;5101267;28;20024;-80
2022/04/07 09:51:45;;;;;;;3.50;2.08;;;15.60;99.90;;;;;;5100026;28;20016;-79
2022/04/07 09:54:12;;;;;;;4.25;1.80;;;15.70;99.90;;;;;;5099365;28;20028;-80
2022/04/07 09:56:38;;;;;;;4.72;1.90;;;15.80;99.90;;;;;;5100016;28;20024;-80
2022/04/07 09:59:06;;;;;;;4.13;2.08;;;16.00;99.90;;;;;;5098704;28;20118;-81
2022/04/07 10:01:33;;;;;;;5.28;2.33;;;16.10;99.90;;;;;;5099579;28;20016;-80
2022/04/07 10:03:59;;;;;;;3.65;2.20;;;16.30;99.90;;;;;;5098425;28;20867;-80
2022/04/07 10:06:26;;;;;;;5.82;3.47;;;16.30;99.90;;;;;;5099814;28;20475;-81
2022/04/07 10:08:51;;;;;;;3.38;1.70;;;16.30;99.90;;;;;;5098603;28;20042;-79
2022/04/07 10:11:19;;;;;;;2.42;1.77;;;16.40;99.90;;;;;;5098410;28;20391;-79
2022/04/07 10:13:48;;;;;;;2.42;1.90;;;16.40;99.90;;;;;;5099372;28;20104;-79
2022/04/07 10:16:15;;;;;;;15.85;2.63;;;16.50;99.90;;;;;;5098164;28;20085;-80
2022/04/07 10:18:44;;;;;;;4.70;2.00;;;16.60;99.90;;;;;;5098167;28;20127;-79
2022/04/07 10:21:19;;;;;;;2.05;1.42;;;16.60;99.90;;;;;;5097645;28;20032;-81
2022/04/07 10:23:59;;;;;;;3.22;2.22;;;16.60;99.90;;;;;;5098195;28;20051;-80
2022/04/07 10:26:26;;;;;;;4.22;2.10;;;16.50;99.90;;;;;;5099520;28;20095;-80
2022/04/07 10:28:55;;;;;;;4.82;2.30;;;16.50;99.90;;;;;;5089264;28;20016;-81
2022/04/07 10:31:22;;;;;;;3.28;2.00;;;16.60;99.90;;;;;;5094454;28;20035;-82
2022/04/07 10:33:49;;;;;;;3.35;2.22;;;16.50;99.90;;;;;;5098928;28;20496;-79
2022/04/07 10:36:16;;;;;;;2.65;1.50;;;16.60;99.90;;;;;;5098732;28;20072;-80
2022/04/07 10:38:45;;;;;;;5.68;2.05;;;16.60;99.90;;;;;;5098736;28;20031;-81
2022/04/07 10:41:11;;;;;;;3.40;1.80;;;16.70;99.90;;;;;;5098492;28;20035;-78
2022/04/07 10:43:40;;;;;;;5.25;2.67;;;16.70;99.90;;;;;;5097175;28;20032;-79
2022/04/07 10:46:13;;;;;;;3.42;1.83;;;16.70;99.90;;;;;;5097457;28;20038;-79
2022/04/07 10:49:03;;;;;;;3.90;1.80;;;16.80;99.90;;;;;;5085137;28;20028;-80
2022/04/07 10:51:51;;;;;;;2.75;1.45;;;16.90;99.90;;;;;;5098444;28;20020;-78
2022/04/07 10:54:17;;;;;;;2.60;1.80;;;16.90;99.90;;;;;;5094691;28;20032;-81
2022/04/07 10:56:48;;;;;;;2.00;1.58;;;17.00;99.90;;;;;;5097648;28;20028;-79
2022/04/07 10:59:27;;;;;;;2.55;2.10;;;17.00;99.90;;;;;;5092869;28;20052;-80
2022/04/07 11:02:02;;;;;;;4.68;2.03;;;17.00;99.90;;;;;;5098940;28;20116;-78
2022/04/07 11:04:32;;;;;;;2.08;1.60;;;17.20;99.90;;;;;;5097432;28;20024;-81
2022/04/07 11:07:19;;;;;;;4.13;2.03;;;17.40;99.90;;;;;;5098757;28;20044;-82
2022/04/07 11:09:53;;;;;;;3.85;1.90;;;17.50;99.90;;;;;;5098320;28;20030;-82
2022/04/07 11:12:28;;;;;;;1.90;1.58;;;17.50;99.90;;;;;;5096693;28;20027;-81
2022/04/07 11:15:22;;;;;;;2.22;1.60;;;17.50;99.90;;;;;;5098362;28;20028;-78
2022/04/07 11:17:52;;;;;;;3.38;1.85;;;17.70;99.90;;;;;;5096933;28;20093;-82
2022/04/07 11:20:21;;;;;;;3.22;2.00;;;17.80;99.90;;;;;;5097958;28;20111;-80
2022/04/07 11:22:54;;;;;;;3.10;1.70;;;17.80;99.90;;;;;;5097998;28;20077;-81
2022/04/07 11:25:24;;;;;;;3.80;1.67;;;18.00;99.90;;;;;;5098029;28;20107;-81
2022/04/07 11:28:13;;;;;;;2.70;1.70;;;18.10;99.90;;;;;;5098232;28;20024;-80
2022/04/07 11:30:49;;;;;;;2.67;1.50;;;18.20;99.90;;;;;;5084375;28;20565;-83
2022/04/07 11:36:05;;;;;;;4.75;2.13;;;18.20;98.50;;;;;;5096461;28;20024;-80
2022/04/07 11:38:31;;;;;;;2.33;1.83;;;18.40;98.10;;;;;;5093885;28;20527;-82
2022/04/07 11:41:06;;;;;;;2.28;1.50;;;18.50;98.20;;;;;;5096369;28;20036;-80
2022/04/07 11:43:34;;;;;;;3.80;1.70;;;18.70;97.10;;;;;;5096197;28;20507;-78
2022/04/07 11:46:02;;;;;;;2.55;1.65;;;19.00;97.00;;;;;;5097638;28;20115;-79
2022/04/07 11:48:40;;;;;;;1.90;1.45;;;19.10;96.30;;;;;;5090130;28;20115;-81
2022/04/07 11:51:17;;;;;;;2.20;1.40;;;18.80;96.00;;;;;;5077840;28;20485;-80
2022/04/07 11:53:53;;;;;;;2.88;1.42;;;18.70;96.10;;;;;;5083754;28;20122;-79
2022/04/07 11:56:27;;;;;;;3.60;1.60;;;18.70;95.40;;;;;;5097322;28;20067;-79
2022/04/07 11:59:02;;;;;;;4.57;2.08;;;18.90;95.00;;;;;;5094939;28;20028;-82
2022/04/07 12:01:29;;;;;;;9.02;1.60;;;18.90;94.00;;;;;;5092930;28;20046;-80
2022/04/07 12:03:56;;;;;;;2.63;1.67;;;19.10;94.20;;;;;;5087602;28;20020;-80
2022/04/07 12:06:27;;;;;;;5.75;1.33;;;19.20;94.30;;;;;;5095221;28;20027;-81
2022/04/07 12:08:55;;;;;;;1.73;1.25;;;19.50;93.60;;;;;;5096290;28;20032;-77
2022/04/07 12:11:23;;;;;;;2.22;1.20;;;19.60;92.50;;;;;;5095836;28;20392;-79
2022/04/07 12:13:54;;;;;;;1.13;1.00;;;19.50;91.20;;;;;;5096522;28;20122;-79
2022/04/07 12:16:22;;;;;;;2.30;1.13;;;19.20;90.70;;;;;;5079109;28;20103;-78
2022/04/07 12:19:02;;;;;;;4.05;1.67;;;19.00;91.20;;;;;;5090884;28;20085;-79
2022/04/07 12:21:48;;;;;;;2.70;1.80;;;19.20;91.20;;;;;;5093613;28;20373;-80
2022/04/07 12:24:14;;;;;;;3.25;1.30;;;19.40;91.50;;;;;;5097156;28;20028;-79
2022/04/07 12:26:42;;;;;;;2.58;1.48;;;19.60;90.80;;;;;;5095826;28;20032;-78
2022/04/07 12:29:12;;;;;;;2.35;1.48;;;19.60;91.00;;;;;;5094963;28;20024;-79
2022/04/07 12:31:38;;;;;;;3.50;1.85;;;19.60;91.20;;;;;;5095829;28;20029;-77
2022/04/07 12:34:12;;;;;;;5.22;3.10;;;19.50;90.70;;;;;;5097296;28;20452;-79
2022/04/07 12:36:44;;;;;;;11.23;4.93;;;19.40;90.50;;;;;;5095369;28;20028;-78
2022/04/07 12:39:12;;;;;;;8.55;3.50;;;19.40;90.80;;;;;;5096116;28;20024;-79
2022/04/07 12:41:44;;;;;;;8.55;3.78;;;19.40;89.50;;;;;;5095500;28;20028;-81
2022/04/07 12:44:16;;;;;;;10.65;4.07;;;19.50;89.50;;;;;;5088384;28;20042;-80
2022/04/07 12:46:48;;;;;;;7.03;2.75;;;19.50;88.00;;;;;;5092112;28;20020;-78
2022/04/07 12:49:22;;;;;;;10.02;3.28;;;19.60;86.50;;;;;;5093441;28;20025;-78
2022/04/07 12:51:47;;;;;;;3.72;1.95;;;19.60;86.00;;;;;;5077991;28;20026;-78
2022/04/07 12:54:14;;;;;;;5.88;2.50;;;19.50;86.00;;;;;;5080490;28;20029;-79
2022/04/07 12:56:42;;;;;;;6.38;1.80;;;19.50;86.00;;;;;;5095602;28;20028;-77